Time;durP1;ratioP1;P1;durP2;ratioP2;P2;SDS_P1;SDS_P2;PMS_P1;PMS_P2;Temp;Humidity;BMP_temperature;BMP_pressure;BME280_temperature;BME280_humidity;BME280_pressure;Samples;Min_cycle;Max_cycle;Signal;HPM_P1;HPM_P2
2024/03/28 00:01:01;;;;;;;0.60;0.30;;;25.10;1.00;;;;;;2612718;54;20438;-67
2024/03/28 00:03:27;;;;;;;0.60;0.30;;;25.10;1.00;;;;;;2612039;54;20395;-68
2024/03/28 00:05:54;;;;;;;0.60;0.30;;;25.00;1.00;;;;;;2612218;47;20427;-68
2024/03/28 00:08:21;;;;;;;0.57;0.30;;;25.00;1.00;;;;;;2611857;39;20929;-66
2024/03/28 00:10:50;;;;;;;0.53;0.30;;;24.90;1.00;;;;;;2611557;54;20415;-67
2024/03/28 00:13:17;;;;;;;0.60;0.30;;;24.90;1.00;;;;;;2611814;47;20420;-67
2024/03/28 00:15:44;;;;;;;0.60;0.30;;;24.90;1.00;;;;;;2612065;54;20431;-68
2024/03/28 00:18:11;;;;;;;0.60;0.30;;;24.80;1.00;;;;;;2612275;39;20730;-67
2024/03/28 00:20:37;;;;;;;0.60;0.30;;;24.80;1.00;;;;;;2612751;54;20419;-66
2024/03/28 00:23:03;;;;;;;0.60;0.30;;;24.70;1.00;;;;;;2612200;54;20392;-67
2024/03/28 00:25:30;;;;;;;0.60;0.30;;;24.70;1.00;;;;;;2612984;54;20550;-73
2024/03/28 00:28:01;;;;;;;0.60;0.27;;;24.70;1.00;;;;;;2612484;39;20818;-72
2024/03/28 00:30:27;;;;;;;0.60;0.30;;;24.70;1.00;;;;;;2612797;54;21017;-73
2024/03/28 00:32:53;;;;;;;0.60;0.30;;;24.60;1.00;;;;;;2613695;47;20416;-72
2024/03/28 00:35:19;;;;;;;0.60;0.30;;;24.60;1.00;;;;;;2614306;54;20967;-73
2024/03/28 00:37:45;;;;;;;0.60;0.30;;;24.50;1.00;;;;;;2613470;54;20167;-72
2024/03/28 00:40:12;;;;;;;0.60;0.30;;;24.50;1.00;;;;;;2613360;54;20178;-73
2024/03/28 00:42:38;;;;;;;0.60;0.30;;;24.50;1.00;;;;;;2613421;47;20178;-72
2024/03/28 00:45:05;;;;;;;0.60;0.30;;;24.50;1.00;;;;;;2615517;39;20831;-66
2024/03/28 00:47:30;;;;;;;0.60;0.30;;;24.40;1.00;;;;;;2613359;47;20443;-66
2024/03/28 00:49:56;;;;;;;0.60;0.30;;;24.40;1.00;;;;;;2612271;54;20407;-66
2024/03/28 00:52:23;;;;;;;0.60;0.30;;;24.40;1.00;;;;;;2612549;54;20143;-66
2024/03/28 00:54:49;;;;;;;0.60;0.30;;;24.30;1.00;;;;;;2613316;47;20162;-66
2024/03/28 00:57:15;;;;;;;0.60;0.30;;;24.30;1.00;;;;;;2613139;47;20435;-67
2024/03/28 00:59:41;;;;;;;0.60;0.30;;;24.30;1.00;;;;;;2612056;39;20791;-65
2024/03/28 01:02:06;;;;;;;0.60;0.30;;;24.30;1.00;;;;;;2612471;54;20181;-66
2024/03/28 01:04:32;;;;;;;0.60;0.30;;;24.30;1.00;;;;;;2613573;54;20162;-65
2024/03/28 01:06:58;;;;;;;0.60;0.30;;;24.20;1.00;;;;;;2611295;39;20614;-66
2024/03/28 01:09:24;;;;;;;0.60;0.30;;;24.20;1.00;;;;;;2613188;54;20150;-67
2024/03/28 01:11:49;;;;;;;0.60;0.30;;;24.20;1.00;;;;;;2612707;54;20208;-66
2024/03/28 01:14:15;;;;;;;0.63;0.43;;;24.10;1.00;;;;;;2612631;54;20147;-66
2024/03/28 01:16:41;;;;;;;0.60;0.20;;;24.10;1.00;;;;;;2610973;54;20877;-66
2024/03/28 01:19:06;;;;;;;0.60;0.30;;;24.10;1.00;;;;;;2613834;47;20672;-67
2024/03/28 01:21:32;;;;;;;0.60;0.30;;;24.10;1.00;;;;;;2613508;54;20135;-67
2024/03/28 01:23:58;;;;;;;0.60;0.30;;;24.00;1.00;;;;;;2613478;54;20187;-67
2024/03/28 01:26:23;;;;;;;0.60;0.30;;;24.00;1.00;;;;;;2612727;54;20163;-66
2024/03/28 01:28:49;;;;;;;0.60;0.30;;;24.00;1.00;;;;;;2614225;47;20158;-66
2024/03/28 01:31:15;;;;;;;0.60;0.30;;;24.00;1.00;;;;;;2613629;54;20155;-66
2024/03/28 01:33:40;;;;;;;1.50;1.40;;;24.00;1.00;;;;;;2612949;47;20673;-66
2024/03/28 01:36:06;;;;;;;0.60;0.30;;;24.00;1.00;;;;;;2614062;54;20174;-71
2024/03/28 01:38:32;;;;;;;0.60;0.30;;;23.90;1.00;;;;;;2614396;54;20656;-70
2024/03/28 01:40:57;;;;;;;0.60;0.30;;;23.90;1.00;;;;;;2613941;39;20644;-71
2024/03/28 01:43:23;;;;;;;0.60;0.30;;;23.90;1.00;;;;;;2612597;54;20143;-71
2024/03/28 01:45:50;;;;;;;0.60;0.30;;;23.90;1.00;;;;;;2612866;54;20238;-65
2024/03/28 01:48:16;;;;;;;0.60;0.30;;;23.80;1.00;;;;;;2613353;54;20442;-66
2024/03/28 01:50:42;;;;;;;0.60;0.30;;;23.80;1.00;;;;;;2612961;54;20454;-66
2024/03/28 01:53:08;;;;;;;0.60;0.30;;;23.80;1.00;;;;;;2613945;54;20423;-66
2024/03/28 01:55:35;;;;;;;0.60;0.30;;;23.80;1.00;;;;;;2613874;54;20154;-67
2024/03/28 01:58:01;;;;;;;0.60;0.30;;;23.80;1.00;;;;;;2613734;54;20384;-67
2024/03/28 02:00:28;;;;;;;0.60;0.30;;;23.80;1.00;;;;;;2611899;54;20445;-67
2024/03/28 02:02:57;;;;;;;0.60;0.30;;;23.70;1.00;;;;;;2612987;39;20798;-68
2024/03/28 02:05:23;;;;;;;0.60;0.30;;;23.70;1.00;;;;;;2612433;54;20415;-67
2024/03/28 02:07:51;;;;;;;0.60;0.30;;;23.70;1.00;;;;;;2613670;47;20468;-67
2024/03/28 02:10:17;;;;;;;0.60;0.30;;;23.70;1.00;;;;;;2613068;47;20403;-68
2024/03/28 02:12:43;;;;;;;0.60;0.30;;;23.60;1.00;;;;;;2613375;54;20391;-67
2024/03/28 02:15:09;;;;;;;0.60;0.30;;;23.60;1.00;;;;;;2613751;54;20467;-68
2024/03/28 02:17:45;;;;;;;0.60;0.30;;;23.60;1.00;;;;;;2614882;39;20786;-67
2024/03/28 02:20:11;;;;;;;0.60;0.30;;;23.60;1.00;;;;;;2613773;54;20422;-68
2024/03/28 02:22:36;;;;;;;0.60;0.30;;;23.60;1.00;;;;;;2614374;39;20859;-68
2024/03/28 02:25:03;;;;;;;0.60;0.30;;;23.60;1.00;;;;;;2614091;39;20601;-67
2024/03/28 02:27:29;;;;;;;0.60;0.30;;;23.60;1.00;;;;;;2612965;39;20775;-67
2024/03/28 02:29:55;;;;;;;0.60;0.30;;;23.50;1.00;;;;;;2612708;54;20420;-67
2024/03/28 02:32:21;;;;;;;0.60;0.30;;;23.50;1.00;;;;;;2613934;54;20162;-67
2024/03/28 02:34:46;;;;;;;0.60;0.30;;;23.50;1.00;;;;;;2613362;47;20250;-67
2024/03/28 02:37:12;;;;;;;0.60;0.30;;;23.50;1.00;;;;;;2613532;54;20493;-67
2024/03/28 02:39:38;;;;;;;0.60;0.30;;;23.50;1.00;;;;;;2614249;39;20559;-66
2024/03/28 02:42:04;;;;;;;0.53;0.30;;;23.50;1.00;;;;;;2613526;54;20663;-67
2024/03/28 02:44:29;;;;;;;0.60;0.30;;;23.50;1.00;;;;;;2614415;54;20147;-74
2024/03/28 02:46:55;;;;;;;0.60;0.30;;;23.50;1.00;;;;;;2614630;31;20659;-72
2024/03/28 02:49:21;;;;;;;0.60;0.30;;;23.50;1.00;;;;;;2613806;54;20147;-72
2024/03/28 02:51:46;;;;;;;0.60;0.30;;;23.40;1.00;;;;;;2613256;39;20878;-72
2024/03/28 02:54:12;;;;;;;0.50;0.30;;;23.40;1.00;;;;;;2614173;54;20190;-73
2024/03/28 02:56:38;;;;;;;0.60;0.30;;;23.40;1.00;;;;;;2614525;54;20167;-75
2024/03/28 02:59:03;;;;;;;0.60;0.30;;;23.40;1.00;;;;;;2613371;39;20587;-73
2024/03/28 03:01:29;;;;;;;0.60;0.30;;;23.40;1.00;;;;;;2613269;54;20740;-74
2024/03/28 03:03:55;;;;;;;0.60;0.30;;;23.40;1.00;;;;;;2612829;54;20250;-74
2024/03/28 03:06:21;;;;;;;0.60;0.30;;;23.40;1.00;;;;;;2612915;54;20162;-72
2024/03/28 03:08:46;;;;;;;0.50;0.30;;;23.40;1.00;;;;;;2613913;54;21038;-72
2024/03/28 03:11:12;;;;;;;0.60;0.30;;;23.40;1.00;;;;;;2614464;39;20521;-72
2024/03/28 03:13:38;;;;;;;0.60;0.30;;;23.40;1.00;;;;;;2613379;54;20147;-72
2024/03/28 03:16:03;;;;;;;0.60;0.30;;;23.30;1.00;;;;;;2612445;54;20143;-72
2024/03/28 03:18:31;;;;;;;0.60;0.30;;;23.30;1.00;;;;;;2613585;54;20150;-72
2024/03/28 03:21:01;;;;;;;0.60;0.30;;;23.30;1.00;;;;;;2613960;54;20175;-73
2024/03/28 03:23:35;;;;;;;0.60;0.30;;;23.30;1.00;;;;;;2613849;51;20431;-72
2024/03/28 03:26:11;;;;;;;0.60;0.30;;;23.30;1.00;;;;;;2613661;54;20446;-72
2024/03/28 03:36:54;;;;;;;0.60;0.30;;;23.20;1.00;;;;;;2612821;54;20422;-73
2024/03/28 03:39:19;;;;;;;0.60;0.30;;;23.20;1.00;;;;;;2613008;54;20439;-72
2024/03/28 03:41:45;;;;;;;0.60;0.30;;;23.20;1.00;;;;;;2614348;54;20147;-72
2024/03/28 03:44:10;;;;;;;0.60;0.30;;;23.20;1.00;;;;;;2613502;54;20147;-72
2024/03/28 03:46:36;;;;;;;0.60;0.30;;;23.20;1.00;;;;;;2613267;54;20139;-72
2024/03/28 03:49:02;;;;;;;0.60;0.30;;;23.20;1.00;;;;;;2613374;54;20139;-71
2024/03/28 03:51:28;;;;;;;0.60;0.30;;;23.20;1.00;;;;;;2613927;54;20185;-72
2024/03/28 03:53:53;;;;;;;0.60;0.30;;;23.20;1.00;;;;;;2614071;54;20198;-71
2024/03/28 03:56:19;;;;;;;0.60;0.30;;;23.10;1.00;;;;;;2612699;54;20719;-68
2024/03/28 03:58:45;;;;;;;0.70;0.70;;;23.10;1.00;;;;;;2611904;54;20165;-66
2024/03/28 04:01:11;;;;;;;0.60;0.30;;;23.10;1.00;;;;;;2612601;54;20177;-66
2024/03/28 04:03:37;;;;;;;0.60;0.30;;;23.10;1.00;;;;;;2612248;39;20557;-68
2024/03/28 04:06:03;;;;;;;0.60;0.30;;;23.10;1.00;;;;;;2611882;47;20424;-71
2024/03/28 04:08:29;;;;;;;0.60;0.30;;;23.10;1.00;;;;;;2612225;54;20502;-73
2024/03/28 04:10:55;;;;;;;0.60;0.30;;;23.10;1.00;;;;;;2613652;54;20425;-72
2024/03/28 04:13:21;;;;;;;0.60;0.30;;;23.10;1.00;;;;;;2613834;54;20404;-72
2024/03/28 04:15:47;;;;;;;0.60;0.30;;;23.00;1.00;;;;;;2613889;54;20168;-70
2024/03/28 04:18:15;;;;;;;0.60;0.30;;;23.00;1.00;;;;;;2613827;54;20404;-70
2024/03/28 04:20:41;;;;;;;0.60;0.30;;;23.00;1.00;;;;;;2613712;54;20660;-71
2024/03/28 04:23:07;;;;;;;0.60;0.30;;;23.00;1.00;;;;;;2613887;54;20525;-71
2024/03/28 04:25:33;;;;;;;0.60;0.30;;;23.00;1.00;;;;;;2613672;54;20183;-71
2024/03/28 04:27:59;;;;;;;0.60;0.30;;;23.00;1.00;;;;;;2613752;47;20907;-71
2024/03/28 04:30:33;;;;;;;0.60;0.30;;;23.00;1.00;;;;;;2614399;39;20484;-71
2024/03/28 04:32:59;;;;;;;0.60;0.30;;;23.00;1.00;;;;;;2614772;39;20675;-71
2024/03/28 04:35:24;;;;;;;0.60;0.30;;;23.00;1.00;;;;;;2614781;39;20785;-71
2024/03/28 04:37:51;;;;;;;0.53;0.30;;;23.00;1.00;;;;;;2613858;54;20501;-70
2024/03/28 04:40:17;;;;;;;0.60;0.30;;;23.00;1.00;;;;;;2613642;54;20184;-70
2024/03/28 04:42:50;;;;;;;0.60;0.30;;;22.90;1.00;;;;;;2614016;54;20436;-70
2024/03/28 04:45:19;;;;;;;0.60;0.30;;;22.90;1.00;;;;;;2614165;54;20432;-70
2024/03/28 04:47:49;;;;;;;0.60;0.30;;;22.90;1.00;;;;;;2614350;54;20403;-70
2024/03/28 04:50:16;;;;;;;0.60;0.30;;;22.90;1.00;;;;;;2613924;54;20430;-71
2024/03/28 04:52:42;;;;;;;0.60;0.30;;;22.90;1.00;;;;;;2613654;54;20447;-70
2024/03/28 04:55:08;;;;;;;0.60;0.30;;;22.90;1.00;;;;;;2613592;54;20399;-70
2024/03/28 04:57:34;;;;;;;0.60;0.30;;;22.90;1.00;;;;;;2613484;54;20190;-70
2024/03/28 05:00:01;;;;;;;0.60;0.30;;;22.90;1.00;;;;;;2612896;54;20419;-70
2024/03/28 05:02:27;;;;;;;0.60;0.30;;;22.90;1.00;;;;;;2612918;47;20423;-69
2024/03/28 05:04:53;;;;;;;0.60;0.30;;;22.80;1.00;;;;;;2613053;54;20395;-74
2024/03/28 05:07:19;;;;;;;0.60;0.30;;;22.80;1.00;;;;;;2612856;54;21083;-74
2024/03/28 05:09:48;;;;;;;0.60;0.30;;;22.90;1.00;;;;;;2613243;54;20194;-73
2024/03/28 05:12:14;;;;;;;0.60;0.30;;;22.90;1.00;;;;;;2613649;54;20396;-75
2024/03/28 05:14:42;;;;;;;0.60;0.30;;;22.90;1.00;;;;;;2614179;54;20419;-69
2024/03/28 05:17:09;;;;;;;0.60;0.30;;;22.90;1.00;;;;;;2613531;54;20452;-68
2024/03/28 05:19:35;;;;;;;0.60;0.30;;;22.80;1.00;;;;;;2613840;54;20450;-67
2024/03/28 05:22:02;;;;;;;0.60;0.30;;;22.90;1.00;;;;;;2613667;54;20451;-67
2024/03/28 05:24:28;;;;;;;0.60;0.30;;;22.90;1.00;;;;;;2613847;47;20163;-72
2024/03/28 05:26:55;;;;;;;0.60;0.30;;;22.90;1.00;;;;;;2613784;54;20396;-72
2024/03/28 05:29:20;;;;;;;0.60;0.30;;;22.80;1.00;;;;;;2613906;54;20428;-72
2024/03/28 05:31:46;;;;;;;0.60;0.30;;;22.80;1.00;;;;;;2613926;47;20419;-73
2024/03/28 05:34:12;;;;;;;0.60;0.30;;;22.80;1.00;;;;;;2613970;47;20250;-72
2024/03/28 05:36:37;;;;;;;0.60;0.30;;;22.80;1.00;;;;;;2613959;54;20242;-74
2024/03/28 05:39:05;;;;;;;0.60;0.30;;;22.80;1.00;;;;;;2613383;54;20147;-72
2024/03/28 05:41:31;;;;;;;0.60;0.30;;;22.80;1.00;;;;;;2614094;54;20170;-72
2024/03/28 05:43:57;;;;;;;0.60;0.30;;;22.80;1.00;;;;;;2614264;50;20519;-73
2024/03/28 05:46:23;;;;;;;0.60;0.30;;;22.80;1.00;;;;;;2612747;54;20493;-73
2024/03/28 05:48:49;;;;;;;0.60;0.30;;;22.80;1.00;;;;;;2614306;54;20934;-72
2024/03/28 05:51:14;;;;;;;0.60;0.30;;;22.80;1.00;;;;;;2613656;54;20159;-73
2024/03/28 05:53:45;;;;;;;0.50;0.20;;;22.80;1.00;;;;;;2613954;54;20250;-72
2024/03/28 05:56:14;;;;;;;0.50;0.30;;;22.80;1.00;;;;;;2613699;54;20174;-72
2024/03/28 05:58:40;;;;;;;0.60;0.30;;;22.80;1.00;;;;;;2613310;47;20412;-73
2024/03/28 06:01:06;;;;;;;0.60;0.30;;;22.80;1.00;;;;;;2612940;54;20412;-72
2024/03/28 06:03:32;;;;;;;0.60;0.30;;;22.80;1.00;;;;;;2612953;39;20964;-72
2024/03/28 06:05:58;;;;;;;0.60;0.30;;;22.80;1.00;;;;;;2612572;54;20535;-72
2024/03/28 06:08:23;;;;;;;0.60;0.30;;;22.80;1.00;;;;;;2612747;54;20155;-72
2024/03/28 06:10:49;;;;;;;0.60;0.30;;;22.80;1.00;;;;;;2613112;54;20608;-72
2024/03/28 06:13:17;;;;;;;0.60;0.30;;;22.80;1.00;;;;;;2613772;54;20145;-72
2024/03/28 06:15:43;;;;;;;0.60;0.30;;;22.80;1.00;;;;;;2612136;47;20208;-67
2024/03/28 06:18:12;;;;;;;0.60;0.30;;;22.80;1.00;;;;;;2612494;54;20408;-73
2024/03/28 06:20:41;;;;;;;0.60;0.30;;;23.00;1.00;;;;;;2612982;54;20925;-74
2024/03/28 06:23:07;;;;;;;0.60;0.30;;;23.10;1.00;;;;;;2612229;54;20427;-70
2024/03/28 06:25:42;;;;;;;0.60;0.30;;;23.10;1.00;;;;;;2612427;54;20416;-69
2024/03/28 06:28:08;;;;;;;0.60;0.30;;;23.30;1.00;;;;;;2611671;54;20435;-60
2024/03/28 06:30:35;;;;;;;0.60;0.40;;;23.50;1.00;;;;;;2612553;54;20423;-64
2024/03/28 06:33:01;;;;;;;0.60;0.40;;;23.80;1.00;;;;;;2612316;54;20403;-65
2024/03/28 06:35:28;;;;;;;0.60;0.30;;;24.10;1.00;;;;;;2613371;54;20411;-74
2024/03/28 06:37:53;;;;;;;0.60;0.40;;;24.20;1.00;;;;;;2612853;54;20412;-74
2024/03/28 06:40:19;;;;;;;0.60;0.40;;;24.10;1.00;;;;;;2613566;54;20488;-72
2024/03/28 06:42:44;;;;;;;0.60;0.40;;;24.20;1.00;;;;;;2613623;54;20162;-74
2024/03/28 06:45:11;;;;;;;0.60;0.40;;;24.20;1.00;;;;;;2613558;47;20174;-70
2024/03/28 06:47:37;;;;;;;0.60;0.30;;;24.30;1.00;;;;;;2612659;39;20669;-79
2024/03/28 06:50:03;;;;;;;0.60;0.30;;;24.40;1.00;;;;;;2613926;54;20436;-76
2024/03/28 06:52:28;;;;;;;0.60;0.30;;;24.40;1.00;;;;;;2611918;54;20250;-84
2024/03/28 06:54:54;;;;;;;0.60;0.30;;;24.20;1.00;;;;;;2613465;54;20411;-84
2024/03/28 06:57:20;;;;;;;0.60;0.30;;;23.90;1.00;;;;;;2614391;54;20712;-85
2024/03/28 06:59:45;;;;;;;0.53;0.30;;;23.70;1.00;;;;;;2613727;54;20167;-83
2024/03/28 07:02:11;;;;;;;0.60;0.30;;;23.50;1.00;;;;;;2614762;54;20142;-84
2024/03/28 07:04:37;;;;;;;0.60;0.30;;;23.40;1.00;;;;;;2614679;54;20170;-83
2024/03/28 07:07:02;;;;;;;0.60;0.30;;;23.30;1.00;;;;;;2615321;39;20508;-83
2024/03/28 07:09:28;;;;;;;0.60;0.30;;;23.20;1.00;;;;;;2614245;54;20186;-85
2024/03/28 07:11:55;;;;;;;0.60;0.30;;;23.20;1.00;;;;;;2614130;54;20154;-84
2024/03/28 07:14:20;;;;;;;0.50;0.30;;;23.10;1.00;;;;;;2615124;54;20406;-83
2024/03/28 07:16:46;;;;;;;0.50;0.30;;;23.10;1.00;;;;;;2614341;47;21002;-83
2024/03/28 07:19:12;;;;;;;0.50;0.30;;;23.10;1.00;;;;;;2613683;54;20197;-84
2024/03/28 07:21:38;;;;;;;0.60;0.30;;;23.10;1.00;;;;;;2615213;54;20162;-84
2024/03/28 07:24:05;;;;;;;0.60;0.30;;;23.10;1.00;;;;;;2615223;47;20162;-83
2024/03/28 07:26:31;;;;;;;0.50;0.30;;;23.10;1.00;;;;;;2612473;54;20945;-62
2024/03/28 07:28:57;;;;;;;0.60;0.30;;;23.10;1.00;;;;;;2612217;54;20427;-62
2024/03/28 07:31:23;;;;;;;0.50;0.27;;;23.10;1.00;;;;;;2612620;54;20510;-62
2024/03/28 07:33:49;;;;;;;0.50;0.30;;;23.10;1.00;;;;;;2611934;54;20174;-62
2024/03/28 07:36:18;;;;;;;0.50;0.20;;;23.10;1.00;;;;;;2613526;47;20439;-83
2024/03/28 07:38:44;;;;;;;0.53;0.30;;;23.10;1.00;;;;;;2614805;54;20408;-83
2024/03/28 07:41:09;;;;;;;0.60;0.30;;;23.10;1.00;;;;;;2614509;39;20823;-82
2024/03/28 07:43:35;;;;;;;0.60;0.30;;;23.10;1.00;;;;;;2613275;39;20579;-84
2024/03/28 07:46:05;;;;;;;0.60;0.30;;;23.10;1.00;;;;;;2613134;39;20596;-72
2024/03/28 07:48:33;;;;;;;0.60;0.30;;;23.10;1.00;;;;;;2612597;39;20863;-72
2024/03/28 07:51:00;;;;;;;0.60;0.30;;;23.10;1.00;;;;;;2613243;54;20388;-71
2024/03/28 07:53:27;;;;;;;0.50;0.30;;;23.10;1.00;;;;;;2612470;39;20910;-71
2024/03/28 07:55:53;;;;;;;0.53;0.30;;;23.10;1.00;;;;;;2613353;39;20801;-71
2024/03/28 07:58:21;;;;;;;0.60;0.30;;;23.00;1.00;;;;;;2611511;54;20395;-71
2024/03/28 08:00:47;;;;;;;0.60;0.30;;;23.00;1.00;;;;;;2611500;47;20162;-71
2024/03/28 08:03:18;;;;;;;0.60;0.30;;;23.00;1.00;;;;;;2614250;31;20966;-71
2024/03/28 08:05:46;;;;;;;0.60;0.30;;;23.00;1.00;;;;;;2612796;46;20197;-72
2024/03/28 08:08:13;;;;;;;0.57;0.30;;;23.00;1.00;;;;;;2613110;54;20404;-71
2024/03/28 08:10:39;;;;;;;0.60;0.30;;;23.00;1.00;;;;;;2613336;54;20407;-72
2024/03/28 08:13:04;;;;;;;0.60;0.30;;;22.90;1.00;;;;;;2613214;54;20518;-72
2024/03/28 08:15:33;;;;;;;0.60;0.30;;;22.90;1.00;;;;;;2612729;47;20167;-72
2024/03/28 08:18:02;;;;;;;0.50;0.30;;;22.90;1.00;;;;;;2613127;54;20166;-72
2024/03/28 08:20:28;;;;;;;0.60;0.30;;;22.90;1.00;;;;;;2612784;54;20479;-72
2024/03/28 08:22:54;;;;;;;0.60;0.30;;;22.90;1.00;;;;;;2613704;51;20937;-72
2024/03/28 08:25:22;;;;;;;0.60;0.30;;;22.90;1.00;;;;;;2613024;47;20430;-72
2024/03/28 08:27:48;;;;;;;0.60;0.30;;;22.90;1.00;;;;;;2612994;54;20421;-73
2024/03/28 08:30:15;;;;;;;0.60;0.30;;;22.90;1.00;;;;;;2612320;54;20434;-72
2024/03/28 08:32:41;;;;;;;0.60;0.30;;;22.80;1.00;;;;;;2613019;54;20394;-71
2024/03/28 08:35:10;;;;;;;0.50;0.30;;;22.80;1.00;;;;;;2613221;54;20411;-67
2024/03/28 08:37:39;;;;;;;0.60;0.30;;;22.80;1.00;;;;;;2613669;54;20406;-68
2024/03/28 08:40:09;;;;;;;0.60;0.30;;;22.80;1.00;;;;;;2613066;54;20442;-68
2024/03/28 08:42:39;;;;;;;0.60;0.30;;;22.80;1.00;;;;;;2613867;39;20792;-67
2024/03/28 08:45:08;;;;;;;0.60;0.30;;;22.80;1.00;;;;;;2612128;47;20419;-66
2024/03/28 08:47:35;;;;;;;0.60;0.30;;;22.80;1.00;;;;;;2612738;54;20418;-64
2024/03/28 08:50:03;;;;;;;0.60;0.30;;;22.80;1.00;;;;;;2612371;54;20419;-65
2024/03/28 08:52:29;;;;;;;0.60;0.30;;;22.80;1.00;;;;;;2612447;47;20414;-65
2024/03/28 08:54:56;;;;;;;0.60;0.30;;;22.80;1.00;;;;;;2612600;54;20416;-63
2024/03/28 08:57:23;;;;;;;0.60;0.30;;;22.80;1.00;;;;;;2613048;39;20897;-65
2024/03/28 08:59:50;;;;;;;0.60;0.30;;;22.80;1.00;;;;;;2612572;54;20399;-65
2024/03/28 09:02:20;;;;;;;0.60;0.30;;;22.80;1.00;;;;;;2612690;46;20427;-66
2024/03/28 09:04:49;;;;;;;0.60;0.30;;;22.80;1.00;;;;;;2613433;54;20483;-65
2024/03/28 09:07:15;;;;;;;0.60;0.30;;;22.70;1.00;;;;;;2613874;54;20494;-65
2024/03/28 09:09:42;;;;;;;0.50;0.30;;;22.70;1.00;;;;;;2612921;54;20431;-64
2024/03/28 09:12:12;;;;;;;0.60;0.30;;;22.70;1.00;;;;;;2613102;54;20408;-63
2024/03/28 09:14:38;;;;;;;0.60;0.30;;;22.80;1.00;;;;;;2612746;54;20458;-65
2024/03/28 09:17:04;;;;;;;0.60;0.30;;;22.70;1.00;;;;;;2612516;54;20472;-65
2024/03/28 09:19:33;;;;;;;0.60;0.30;;;22.70;1.00;;;;;;2612806;54;20435;-64
2024/03/28 09:21:58;;;;;;;0.60;0.30;;;22.70;1.00;;;;;;2611522;54;20423;-65
2024/03/28 09:24:25;;;;;;;0.57;0.30;;;22.70;1.00;;;;;;2613518;39;20732;-65
2024/03/28 09:26:52;;;;;;;0.60;0.30;;;22.70;1.00;;;;;;2612314;54;20697;-65
2024/03/28 09:29:20;;;;;;;0.60;0.30;;;22.70;1.00;;;;;;2612934;54;20457;-63
2024/03/28 09:31:49;;;;;;;0.60;0.30;;;22.70;1.00;;;;;;2612757;54;20408;-64
2024/03/28 09:34:15;;;;;;;0.60;0.30;;;22.70;1.00;;;;;;2613173;39;20817;-64
2024/03/28 09:36:41;;;;;;;0.60;0.30;;;22.70;1.00;;;;;;2613304;54;20427;-65
2024/03/28 09:39:08;;;;;;;0.60;0.30;;;22.70;1.00;;;;;;2613504;54;20479;-65
2024/03/28 09:41:34;;;;;;;0.60;0.30;;;22.70;1.00;;;;;;2613047;54;20431;-65
2024/03/28 09:44:04;;;;;;;0.60;0.30;;;22.70;1.00;;;;;;2612676;47;20456;-65
2024/03/28 09:46:30;;;;;;;0.60;0.30;;;22.70;1.00;;;;;;2612853;39;20881;-62
2024/03/28 09:49:00;;;;;;;0.60;0.30;;;22.70;1.00;;;;;;2613342;54;20424;-62
2024/03/28 09:51:27;;;;;;;0.53;0.30;;;22.70;1.00;;;;;;2613154;54;20400;-62
2024/03/28 09:53:54;;;;;;;0.60;0.30;;;22.80;1.00;;;;;;2612444;54;20522;-62
2024/03/28 09:56:23;;;;;;;0.60;0.30;;;22.80;1.00;;;;;;2613554;54;20431;-69
2024/03/28 09:58:50;;;;;;;0.50;0.30;;;22.80;1.00;;;;;;2612238;54;20509;-69
2024/03/28 10:01:16;;;;;;;0.60;0.30;;;22.80;1.00;;;;;;2612606;54;20412;-69
2024/03/28 10:04:05;;;;;;;0.60;0.30;;;22.80;1.00;;;;;;2612810;54;20427;-69
2024/03/28 10:06:30;;;;;;;0.53;0.30;;;22.70;1.00;;;;;;2613079;54;20428;-67
2024/03/28 10:08:56;;;;;;;0.53;0.30;;;22.70;1.00;;;;;;2613120;54;20426;-66
2024/03/28 10:11:22;;;;;;;0.60;0.30;;;22.70;1.00;;;;;;2613151;47;20213;-68
2024/03/28 10:13:49;;;;;;;0.60;0.30;;;22.70;1.00;;;;;;2612545;47;20171;-67
2024/03/28 10:16:18;;;;;;;0.60;0.30;;;22.70;1.00;;;;;;2612747;54;20419;-66
2024/03/28 10:18:45;;;;;;;0.53;0.30;;;22.70;1.00;;;;;;2612189;54;20427;-67
2024/03/28 10:21:14;;;;;;;0.60;0.30;;;22.70;1.00;;;;;;2612606;54;20530;-66
2024/03/28 10:23:39;;;;;;;0.60;0.30;;;22.70;1.00;;;;;;2613205;54;20387;-67
2024/03/28 10:26:09;;;;;;;0.60;0.30;;;22.70;1.00;;;;;;2612329;54;20526;-66
2024/03/28 10:28:36;;;;;;;0.60;0.30;;;22.60;1.00;;;;;;2611825;54;20196;-67
2024/03/28 10:31:04;;;;;;;0.50;0.20;;;22.60;1.00;;;;;;2612949;54;20531;-66
2024/03/28 10:33:33;;;;;;;0.57;0.30;;;22.60;1.00;;;;;;2613506;54;20417;-66
2024/03/28 10:36:00;;;;;;;0.60;0.30;;;22.60;1.00;;;;;;2612992;54;20423;-68
2024/03/28 10:38:26;;;;;;;0.60;0.27;;;22.60;1.00;;;;;;2612284;54;20419;-68
2024/03/28 10:40:58;;;;;;;0.60;0.30;;;22.60;1.00;;;;;;2612653;47;20423;-67
2024/03/28 10:43:27;;;;;;;0.60;0.30;;;22.60;1.00;;;;;;2612854;39;20957;-67
2024/03/28 10:46:02;;;;;;;0.60;0.30;;;22.60;1.00;;;;;;2613000;54;20479;-67
2024/03/28 10:48:31;;;;;;;0.60;0.30;;;22.60;1.00;;;;;;2613176;54;20402;-67
2024/03/28 10:51:24;;;;;;;0.60;0.30;;;22.60;1.00;;;;;;2613447;54;20402;-67
2024/03/28 10:53:56;;;;;;;0.57;0.30;;;22.60;1.00;;;;;;2613327;54;20446;-67
2024/03/28 10:56:23;;;;;;;0.60;0.30;;;22.60;1.00;;;;;;2613178;47;20538;-67
2024/03/28 10:58:49;;;;;;;0.60;0.30;;;22.60;1.00;;;;;;2613285;47;20467;-66
2024/03/28 11:01:16;;;;;;;0.60;0.30;;;22.60;1.00;;;;;;2611478;54;20415;-67
2024/03/28 11:03:44;;;;;;;0.60;0.30;;;22.60;1.00;;;;;;2612569;39;21142;-66
2024/03/28 11:06:11;;;;;;;0.60;0.30;;;22.60;1.00;;;;;;2612431;54;20411;-69
2024/03/28 11:08:37;;;;;;;0.60;0.30;;;22.60;1.00;;;;;;2613237;39;20904;-68
2024/03/28 11:11:05;;;;;;;0.60;0.30;;;22.60;1.00;;;;;;2613496;54;20499;-68
2024/03/28 11:13:32;;;;;;;0.60;0.30;;;22.60;1.00;;;;;;2612565;54;20989;-68
2024/03/28 11:16:10;;;;;;;0.60;0.30;;;22.50;1.00;;;;;;2613022;51;21737;-62
2024/03/28 11:18:36;;;;;;;0.60;0.30;;;22.60;1.00;;;;;;2612390;54;20410;-62
2024/03/28 11:21:03;;;;;;;0.60;0.30;;;22.60;1.00;;;;;;2612302;54;20468;-62
2024/03/28 11:23:29;;;;;;;0.60;0.30;;;22.60;1.00;;;;;;2612028;54;20426;-62
2024/03/28 11:26:23;;;;;;;0.60;0.30;;;22.60;1.00;;;;;;2611757;47;20399;-62
2024/03/28 11:29:05;;;;;;;0.50;0.30;;;22.60;1.00;;;;;;2612100;47;20500;-62
2024/03/28 11:31:32;;;;;;;0.60;0.30;;;22.60;1.00;;;;;;2612440;54;20475;-61
2024/03/28 11:34:02;;;;;;;0.60;0.30;;;22.60;1.00;;;;;;2612668;54;20423;-62
2024/03/28 11:36:29;;;;;;;0.60;0.30;;;22.60;1.00;;;;;;2612385;47;20408;-62
2024/03/28 11:38:54;;;;;;;0.60;0.30;;;22.60;1.00;;;;;;2612106;54;20789;-63
2024/03/28 11:41:25;;;;;;;0.50;0.30;;;22.70;1.00;;;;;;2611959;54;20473;-62
2024/03/28 11:43:52;;;;;;;0.50;0.30;;;22.60;1.00;;;;;;2612456;47;20182;-62
2024/03/28 11:46:26;;;;;;;0.60;0.30;;;22.60;1.00;;;;;;2612130;54;20499;-61
2024/03/28 11:48:56;;;;;;;0.60;0.30;;;22.70;1.00;;;;;;2613137;54;20412;-61
2024/03/28 11:51:22;;;;;;;0.60;0.30;;;22.70;1.00;;;;;;2612591;47;20434;-62
2024/03/28 11:53:48;;;;;;;0.50;0.30;;;22.70;1.00;;;;;;2612640;54;20488;-61
2024/03/28 11:56:18;;;;;;;0.60;0.30;;;22.70;1.00;;;;;;2612626;47;20424;-63
2024/03/28 11:58:44;;;;;;;0.60;0.30;;;22.80;1.00;;;;;;2612745;54;20616;-62
2024/03/28 12:01:10;;;;;;;0.60;0.30;;;22.90;1.00;;;;;;2611577;39;20819;-61
2024/03/28 12:03:36;;;;;;;0.60;0.30;;;22.90;1.00;;;;;;2612256;54;20421;-63
2024/03/28 12:06:03;;;;;;;0.60;0.30;;;23.00;1.00;;;;;;2613101;54;20415;-74
2024/03/28 12:08:30;;;;;;;0.60;0.30;;;23.00;1.00;;;;;;2612774;47;20439;-75
2024/03/28 12:11:03;;;;;;;0.60;0.30;;;23.00;1.00;;;;;;2612504;54;20471;-74
2024/03/28 12:13:32;;;;;;;0.60;0.30;;;23.10;1.00;;;;;;2613188;47;20467;-75
2024/03/28 12:16:03;;;;;;;0.60;0.30;;;23.10;1.00;;;;;;2613662;54;21230;-86
2024/03/28 12:18:33;;;;;;;0.60;0.30;;;23.00;1.00;;;;;;2614063;54;20427;-87
2024/03/28 12:21:06;;;;;;;0.53;0.30;;;23.00;1.00;;;;;;2614358;47;20435;-87
2024/03/28 12:23:33;;;;;;;0.57;0.30;;;23.00;1.00;;;;;;2614147;54;20542;-87
2024/03/28 12:26:01;;;;;;;0.60;0.30;;;23.00;1.00;;;;;;2613710;54;20431;-63
2024/03/28 12:28:27;;;;;;;0.60;0.30;;;23.10;1.00;;;;;;2612462;54;20407;-63
2024/03/28 12:30:57;;;;;;;0.60;0.30;;;23.20;1.00;;;;;;2613004;54;21003;-62
2024/03/28 12:33:24;;;;;;;0.60;0.30;;;23.20;1.00;;;;;;2611775;54;20423;-62
2024/03/28 12:35:55;;;;;;;0.60;0.30;;;23.20;1.00;;;;;;2612822;54;20412;-61
2024/03/28 12:38:21;;;;;;;0.50;0.30;;;23.30;1.00;;;;;;2612655;39;20813;-62
2024/03/28 12:40:48;;;;;;;0.60;0.30;;;23.40;1.00;;;;;;2613151;54;20424;-63
2024/03/28 12:43:19;;;;;;;0.60;0.30;;;23.50;1.00;;;;;;2613761;54;20407;-63
2024/03/28 12:45:45;;;;;;;0.60;0.30;;;23.50;1.00;;;;;;2612970;47;20483;-63
2024/03/28 12:48:15;;;;;;;0.60;0.30;;;23.60;1.00;;;;;;2612439;54;20987;-62
2024/03/28 12:50:45;;;;;;;0.60;0.30;;;23.70;1.00;;;;;;2612702;54;20459;-62
2024/03/28 12:53:11;;;;;;;0.60;0.30;;;23.70;1.00;;;;;;2612846;54;20447;-63
2024/03/28 12:55:38;;;;;;;0.60;0.30;;;23.70;1.00;;;;;;2613091;54;20433;-62
2024/03/28 12:58:05;;;;;;;0.60;0.30;;;23.80;1.00;;;;;;2613209;39;20841;-63
2024/03/28 13:00:31;;;;;;;0.60;0.30;;;23.80;1.00;;;;;;2613020;54;20989;-62
2024/03/28 13:02:57;;;;;;;0.60;0.30;;;23.70;1.00;;;;;;2612406;54;20866;-63
2024/03/28 13:05:23;;;;;;;0.60;0.30;;;23.80;1.00;;;;;;2613616;54;20202;-63